Cap Bianco — A8OK5 — position and weather

sailwx.info

Track history (hours):
 
Tides and Currents Weather Stations Pressure Air Temp Water Temp Dewpoint Dewpoint Depression Visibility Wind Speed Wind Dir Waves Ship Positions

Cap Bianco

Last reported at 2014-Dec-17 08:28 UTC. Time now 2014-Dec-17 21:40 UTC.
Position S 34°39' W 058°20'.

Length 222 m; draft 9.6 m.

Type: Cargo ship. MMSI: 636091489.

Date/timePositionNaut miles runAvg speedWind from/ knotsBaromVisibWave heightAir tempDewpointWater temp
2014-Dec-17 08:28S 34°39' W 058°20'2 2.0
2014-Dec-17 07:29S 34°37' W 058°19'1110.6
2014-Dec-17 06:27S 34°39' W 058°06'1011.6
2014-Dec-17 05:33S 34°42' W 057°54'6 6.2
2014-Dec-17 04:33S 34°40' W 058°01'1111.1
2014-Dec-17 03:33S 34°37' W 058°14'1010.2
2014-Dec-17 02:33S 34°29' W 058°23'  
2014-Dec-09 12:34S 24°08' W 046°24'1110.9
2014-Dec-09 11:34S 23°59' W 046°17'1 1.3
2014-Dec-09 10:31S 23°58' W 046°18'0 0.0
2014-Dec-09 09:31S 23°58' W 046°18'0 0.0
2014-Dec-09 08:31S 23°58' W 046°18'0 0.0
2014-Dec-09 07:31S 23°58' W 046°18'0 0.0
2014-Dec-09 06:31S 23°58' W 046°18'0 0.0
2014-Dec-09 05:31S 23°58' W 046°18'0 0.0
2014-Dec-09 04:31S 23°58' W 046°18'0 0.0
2014-Dec-09 03:31S 23°58' W 046°18'0 0.0
2014-Dec-09 02:31S 23°58' W 046°18'0 0.0
2014-Dec-09 01:28S 23°58' W 046°18'0 0.0
2014-Dec-09 00:31S 23°58' W 046°18'0 0.0
2014-Dec-08 23:31S 23°58' W 046°18'0 0.0
2014-Dec-08 22:31S 23°58' W 046°18'0 0.0
2014-Dec-08 21:31S 23°58' W 046°18'0 0.0
2014-Dec-08 20:31S 23°58' W 046°18'0 0.0
2014-Dec-08 19:31S 23°58' W 046°18'3 3.1
2014-Dec-08 18:33S 23°60' W 046°20'9 8.4
2014-Dec-08 17:32S 24°08' W 046°23'231 8.0
2014-Dec-07 12:33S 27°34' W 048°18'1211.7
2014-Dec-07 11:33S 27°46' W 048°21'  
Track history (hours):
 
Tides and Currents Weather Stations Pressure Air Temp Water Temp Dewpoint Dewpoint Depression Visibility Wind Speed Wind Dir Waves Ship Positions

Cap Bianco

Last reported at 2014-Dec-17 08:28 UTC. Time now 2014-Dec-17 21:40 UTC.
Position S 34°39' W 058°20'.

Length 222 m; draft 9.6 m.

Type: Cargo ship. MMSI: 636091489.

Date/timePositionNaut miles runAvg speedWind from/ knotsBaromVisibWave heightAir tempDewpointWater temp
2014-Dec-17 08:28S 34°39' W 058°20'2 2.0
2014-Dec-17 07:29S 34°37' W 058°19'1110.6
2014-Dec-17 06:27S 34°39' W 058°06'1011.6
2014-Dec-17 05:33S 34°42' W 057°54'6 6.2
2014-Dec-17 04:33S 34°40' W 058°01'1111.1
2014-Dec-17 03:33S 34°37' W 058°14'1010.2
2014-Dec-17 02:33S 34°29' W 058°23'  
2014-Dec-09 12:34S 24°08' W 046°24'1110.9
2014-Dec-09 11:34S 23°59' W 046°17'1 1.3
2014-Dec-09 10:31S 23°58' W 046°18'0 0.0
2014-Dec-09 09:31S 23°58' W 046°18'0 0.0
2014-Dec-09 08:31S 23°58' W 046°18'0 0.0
2014-Dec-09 07:31S 23°58' W 046°18'0 0.0
2014-Dec-09 06:31S 23°58' W 046°18'0 0.0
2014-Dec-09 05:31S 23°58' W 046°18'0 0.0
2014-Dec-09 04:31S 23°58' W 046°18'0 0.0
2014-Dec-09 03:31S 23°58' W 046°18'0 0.0
2014-Dec-09 02:31S 23°58' W 046°18'0 0.0
2014-Dec-09 01:28S 23°58' W 046°18'0 0.0
2014-Dec-09 00:31S 23°58' W 046°18'0 0.0
2014-Dec-08 23:31S 23°58' W 046°18'0 0.0
2014-Dec-08 22:31S 23°58' W 046°18'0 0.0
2014-Dec-08 21:31S 23°58' W 046°18'0 0.0
2014-Dec-08 20:31S 23°58' W 046°18'0 0.0
2014-Dec-08 19:31S 23°58' W 046°18'3 3.1
2014-Dec-08 18:33S 23°60' W 046°20'9 8.4
2014-Dec-08 17:32S 24°08' W 046°23'231 8.0
2014-Dec-07 12:33S 27°34' W 048°18'1211.7
2014-Dec-07 11:33S 27°46' W 048°21'  

Dump ship's entire track history